sensor_id;sensor_type;location;lat;lon;timestamp;pressure;altitude;pressure_sealevel;temperature;humidity
47154;BME280;32907;41.412;2.164;2023-02-13T00:01:27;102302.81;;;16.92;37.67
47154;BME280;32907;41.412;2.164;2023-02-13T00:03:55;102335.34;;;17.11;37.50
47154;BME280;32907;41.412;2.164;2023-02-13T00:06:23;102247.31;;;16.46;37.78
47154;BME280;32907;41.412;2.164;2023-02-13T00:08:51;102343.78;;;17.02;37.70
47154;BME280;32907;41.412;2.164;2023-02-13T00:11:19;102307.59;;;16.78;37.38
47154;BME280;32907;41.412;2.164;2023-02-13T00:13:48;102325.13;;;16.94;37.72
47154;BME280;32907;41.412;2.164;2023-02-13T00:16:16;102336.84;;;17.06;37.48
47154;BME280;32907;41.412;2.164;2023-02-13T00:18:44;102339.44;;;17.01;37.44
47154;BME280;32907;41.412;2.164;2023-02-13T00:21:13;102306.53;;;16.80;37.03
47154;BME280;32907;41.412;2.164;2023-02-13T00:23:41;102326.03;;;16.88;37.69
47154;BME280;32907;41.412;2.164;2023-02-13T00:26:13;102311.06;;;16.86;37.50
47154;BME280;32907;41.412;2.164;2023-02-13T00:28:44;102293.56;;;16.63;37.66
47154;BME280;32907;41.412;2.164;2023-02-13T00:31:17;102332.63;;;16.92;37.30
47154;BME280;32907;41.412;2.164;2023-02-13T00:33:45;102261.22;;;16.50;37.03
47154;BME280;32907;41.412;2.164;2023-02-13T00:36:19;102330.78;;;16.93;37.42
47154;BME280;32907;41.412;2.164;2023-02-13T00:38:47;102303.25;;;16.77;37.36
47154;BME280;32907;41.412;2.164;2023-02-13T00:41:16;102305.78;;;16.72;37.22
47154;BME280;32907;41.412;2.164;2023-02-13T00:43:45;102317.00;;;16.94;37.11
47154;BME280;32907;41.412;2.164;2023-02-13T00:46:14;102309.78;;;16.88;37.43
47154;BME280;32907;41.412;2.164;2023-02-13T00:48:43;102257.25;;;16.53;37.33
47154;BME280;32907;41.412;2.164;2023-02-13T00:51:11;102197.19;;;16.19;37.31
47154;BME280;32907;41.412;2.164;2023-02-13T00:53:39;102304.19;;;16.83;36.60
47154;BME280;32907;41.412;2.164;2023-02-13T00:56:08;102236.47;;;16.46;37.12
47154;BME280;32907;41.412;2.164;2023-02-13T00:58:36;102320.31;;;16.96;37.09
47154;BME280;32907;41.412;2.164;2023-02-13T01:01:05;102217.06;;;16.31;36.82
47154;BME280;32907;41.412;2.164;2023-02-13T01:03:34;102267.53;;;16.62;36.89
47154;BME280;32907;41.412;2.164;2023-02-13T01:06:02;102220.75;;;16.37;36.73
47154;BME280;32907;41.412;2.164;2023-02-13T01:08:31;102268.38;;;16.63;36.46
47154;BME280;32907;41.412;2.164;2023-02-13T01:10:59;102277.56;;;16.62;38.58
47154;BME280;32907;41.412;2.164;2023-02-13T01:13:28;102307.53;;;16.85;39.10
47154;BME280;32907;41.412;2.164;2023-02-13T01:15:56;102272.47;;;16.72;37.38
47154;BME280;32907;41.412;2.164;2023-02-13T01:18:25;102324.66;;;16.97;36.93
47154;BME280;32907;41.412;2.164;2023-02-13T01:21:00;102195.78;;;16.16;36.62
47154;BME280;32907;41.412;2.164;2023-02-13T01:23:37;102298.03;;;16.76;36.71
47154;BME280;32907;41.412;2.164;2023-02-13T01:26:08;102326.41;;;16.92;36.81
47154;BME280;32907;41.412;2.164;2023-02-13T01:28:37;102324.97;;;16.89;37.03
47154;BME280;32907;41.412;2.164;2023-02-13T01:31:05;102333.34;;;16.88;36.97
47154;BME280;32907;41.412;2.164;2023-02-13T01:33:34;102204.41;;;16.07;37.17
47154;BME280;32907;41.412;2.164;2023-02-13T01:36:10;102308.50;;;16.72;36.96
47154;BME280;32907;41.412;2.164;2023-02-13T01:38:39;102256.16;;;16.35;37.27
47154;BME280;32907;41.412;2.164;2023-02-13T01:41:07;102325.88;;;16.83;37.76
47154;BME280;32907;41.412;2.164;2023-02-13T01:46:20;102310.41;;;16.65;37.76
47154;BME280;32907;41.412;2.164;2023-02-13T01:48:50;102301.22;;;16.66;37.65
47154;BME280;32907;41.412;2.164;2023-02-13T01:51:26;102197.72;;;16.09;37.78
47154;BME280;32907;41.412;2.164;2023-02-13T01:54:03;102322.56;;;16.81;38.08
47154;BME280;32907;41.412;2.164;2023-02-13T01:56:48;102317.00;;;16.76;37.92
47154;BME280;32907;41.412;2.164;2023-02-13T01:59:20;102297.56;;;16.61;38.31
47154;BME280;32907;41.412;2.164;2023-02-13T02:01:51;102312.75;;;16.62;38.03
47154;BME280;32907;41.412;2.164;2023-02-13T02:04:27;102199.91;;;16.01;38.29
47154;BME280;32907;41.412;2.164;2023-02-13T02:07:03;102254.97;;;16.31;38.34
47154;BME280;32907;41.412;2.164;2023-02-13T02:09:37;102260.75;;;16.35;38.55
47154;BME280;32907;41.412;2.164;2023-02-13T02:14:42;102180.94;;;15.82;37.94
47154;BME280;32907;41.412;2.164;2023-02-13T02:17:10;102178.81;;;15.84;38.17
47154;BME280;32907;41.412;2.164;2023-02-13T02:45:03;102298.34;;;16.43;38.28
47154;BME280;32907;41.412;2.164;2023-02-13T02:58:37;102331.38;;;16.51;38.36
47154;BME280;32907;41.412;2.164;2023-02-13T03:01:29;102237.59;;;15.95;38.32
47154;BME280;32907;41.412;2.164;2023-02-13T03:04:33;102328.06;;;16.49;38.01
47154;BME280;32907;41.412;2.164;2023-02-13T03:07:21;102312.59;;;16.38;38.05
47154;BME280;32907;41.412;2.164;2023-02-13T03:09:56;102322.13;;;16.41;38.13
47154;BME280;32907;41.412;2.164;2023-02-13T03:12:54;102320.66;;;16.45;38.32
47154;BME280;32907;41.412;2.164;2023-02-13T03:15:48;102330.19;;;16.47;37.91
47154;BME280;32907;41.412;2.164;2023-02-13T03:18:38;102339.97;;;16.48;38.38
47154;BME280;32907;41.412;2.164;2023-02-13T03:24:25;102339.50;;;16.51;37.92
47154;BME280;32907;41.412;2.164;2023-02-13T03:32:52;102329.38;;;16.47;37.76
47154;BME280;32907;41.412;2.164;2023-02-13T03:35:36;102321.53;;;16.39;37.85
47154;BME280;32907;41.412;2.164;2023-02-13T03:38:54;102326.50;;;16.42;37.73
47154;BME280;32907;41.412;2.164;2023-02-13T03:41:29;102317.00;;;16.33;37.49
47154;BME280;32907;41.412;2.164;2023-02-13T03:46:51;102336.72;;;16.40;37.97
47154;BME280;32907;41.412;2.164;2023-02-13T03:49:30;102238.78;;;15.81;38.18
47154;BME280;32907;41.412;2.164;2023-02-13T03:52:24;102323.16;;;16.21;37.88
47154;BME280;32907;41.412;2.164;2023-02-13T03:54:59;102333.25;;;16.33;38.05
47154;BME280;32907;41.412;2.164;2023-02-13T03:57:47;102327.06;;;16.26;37.88
47154;BME280;32907;41.412;2.164;2023-02-13T04:00:39;102221.25;;;15.59;38.32
47154;BME280;32907;41.412;2.164;2023-02-13T04:03:36;102356.97;;;16.37;38.32
47154;BME280;32907;41.412;2.164;2023-02-13T04:06:15;102347.31;;;16.41;37.90
47154;BME280;32907;41.412;2.164;2023-02-13T04:08:43;102338.06;;;16.31;38.10
47154;BME280;32907;41.412;2.164;2023-02-13T04:11:22;102339.72;;;16.32;38.11
47154;BME280;32907;41.412;2.164;2023-02-13T04:13:57;102027.03;;;14.18;37.87
47154;BME280;32907;41.412;2.164;2023-02-13T04:16:39;102358.56;;;16.45;37.85
47154;BME280;32907;41.412;2.164;2023-02-13T04:19:09;102325.03;;;16.21;37.38
47154;BME280;32907;41.412;2.164;2023-02-13T04:21:38;102275.75;;;15.87;37.64
47154;BME280;32907;41.412;2.164;2023-02-13T04:24:07;102326.50;;;16.17;37.55
47154;BME280;32907;41.412;2.164;2023-02-13T04:26:41;102350.41;;;16.20;37.55
47154;BME280;32907;41.412;2.164;2023-02-13T04:29:09;102366.59;;;16.27;37.82
47154;BME280;32907;41.412;2.164;2023-02-13T04:31:37;102365.56;;;16.28;37.57
47154;BME280;32907;41.412;2.164;2023-02-13T04:34:06;102360.81;;;16.23;37.77
47154;BME280;32907;41.412;2.164;2023-02-13T04:36:34;102363.91;;;16.27;38.00
47154;BME280;32907;41.412;2.164;2023-02-13T04:39:02;102352.84;;;16.28;37.74
47154;BME280;32907;41.412;2.164;2023-02-13T04:41:31;102355.19;;;16.25;37.68
47154;BME280;32907;41.412;2.164;2023-02-13T04:43:59;102351.69;;;16.17;37.78
47154;BME280;32907;41.412;2.164;2023-02-13T04:46:28;102319.41;;;15.98;37.58
47154;BME280;32907;41.412;2.164;2023-02-13T04:48:55;102277.34;;;15.70;37.45
47154;BME280;32907;41.412;2.164;2023-02-13T04:51:23;102331.19;;;16.03;38.04
47154;BME280;32907;41.412;2.164;2023-02-13T04:53:51;102235.25;;;15.49;37.83
47154;BME280;32907;41.412;2.164;2023-02-13T04:56:19;102330.31;;;16.09;37.87
47154;BME280;32907;41.412;2.164;2023-02-13T04:58:48;102344.41;;;16.18;37.90
47154;BME280;32907;41.412;2.164;2023-02-13T05:01:16;102369.84;;;16.35;38.15
47154;BME280;32907;41.412;2.164;2023-02-13T05:03:45;102370.25;;;16.39;38.01
47154;BME280;32907;41.412;2.164;2023-02-13T05:06:13;102374.16;;;16.43;38.02
47154;BME280;32907;41.412;2.164;2023-02-13T05:08:40;102352.84;;;16.28;37.76
47154;BME280;32907;41.412;2.164;2023-02-13T05:11:10;102364.63;;;16.40;37.53
47154;BME280;32907;41.412;2.164;2023-02-13T05:13:38;102378.06;;;16.54;37.60
47154;BME280;32907;41.412;2.164;2023-02-13T05:16:06;102377.81;;;16.55;37.96
47154;BME280;32907;41.412;2.164;2023-02-13T05:18:34;102348.06;;;16.30;37.83
47154;BME280;32907;41.412;2.164;2023-02-13T05:21:02;102380.53;;;16.55;38.51
47154;BME280;32907;41.412;2.164;2023-02-13T05:23:48;102259.44;;;15.76;38.11
47154;BME280;32907;41.412;2.164;2023-02-13T05:26:16;102382.19;;;16.56;38.11
47154;BME280;32907;41.412;2.164;2023-02-13T05:28:44;102288.03;;;15.90;38.23
47154;BME280;32907;41.412;2.164;2023-02-13T05:31:30;102326.75;;;16.15;38.30
47154;BME280;32907;41.412;2.164;2023-02-13T05:33:58;102387.97;;;16.60;38.16
47154;BME280;32907;41.412;2.164;2023-02-13T05:36:26;102398.81;;;16.60;38.03
47154;BME280;32907;41.412;2.164;2023-02-13T05:38:54;102354.84;;;16.39;37.56
47154;BME280;32907;41.412;2.164;2023-02-13T05:41:22;102315.09;;;16.15;37.41
47154;BME280;32907;41.412;2.164;2023-02-13T05:43:49;102302.06;;;16.05;37.61
47154;BME280;32907;41.412;2.164;2023-02-13T05:46:17;102318.84;;;16.14;38.77
47154;BME280;32907;41.412;2.164;2023-02-13T05:48:45;102366.44;;;16.46;39.29
47154;BME280;32907;41.412;2.164;2023-02-13T05:51:13;102402.28;;;16.67;39.50
47154;BME280;32907;41.412;2.164;2023-02-13T05:53:41;102258.28;;;15.90;39.56
47154;BME280;32907;41.412;2.164;2023-02-13T05:56:09;102314.56;;;16.25;38.94
47154;BME280;32907;41.412;2.164;2023-02-13T05:58:37;102263.69;;;15.90;38.87
47154;BME280;32907;41.412;2.164;2023-02-13T06:01:05;102366.94;;;16.62;39.05
47154;BME280;32907;41.412;2.164;2023-02-13T06:03:35;102351.09;;;16.40;38.30
47154;BME280;32907;41.412;2.164;2023-02-13T06:06:03;102386.78;;;16.56;37.81
47154;BME280;32907;41.412;2.164;2023-02-13T06:08:31;102319.34;;;16.04;37.61
47154;BME280;32907;41.412;2.164;2023-02-13T06:11:00;102381.63;;;16.47;37.69
47154;BME280;32907;41.412;2.164;2023-02-13T06:13:29;102350.50;;;16.13;38.40
47154;BME280;32907;41.412;2.164;2023-02-13T06:15:58;102413.84;;;16.56;38.46
47154;BME280;32907;41.412;2.164;2023-02-13T06:18:27;102337.78;;;16.14;38.60
47154;BME280;32907;41.412;2.164;2023-02-13T06:20:55;102303.63;;;15.88;39.25
47154;BME280;32907;41.412;2.164;2023-02-13T06:23:23;102406.50;;;16.63;39.74
47154;BME280;32907;41.412;2.164;2023-02-13T06:25:52;102413.81;;;16.62;39.06
47154;BME280;32907;41.412;2.164;2023-02-13T06:28:20;102414.63;;;16.63;39.66
47154;BME280;32907;41.412;2.164;2023-02-13T06:30:48;102384.34;;;16.47;39.47
47154;BME280;32907;41.412;2.164;2023-02-13T06:33:16;102377.69;;;16.43;39.56
47154;BME280;32907;41.412;2.164;2023-02-13T06:35:44;102377.69;;;16.43;39.46
47154;BME280;32907;41.412;2.164;2023-02-13T06:38:12;102423.56;;;16.70;39.00
47154;BME280;32907;41.412;2.164;2023-02-13T06:40:40;102347.84;;;16.32;39.15
47154;BME280;32907;41.412;2.164;2023-02-13T06:43:09;102386.47;;;16.45;38.94
47154;BME280;32907;41.412;2.164;2023-02-13T06:45:37;102329.66;;;16.14;38.06
47154;BME280;32907;41.412;2.164;2023-02-13T06:48:06;102436.44;;;16.68;38.35
47154;BME280;32907;41.412;2.164;2023-02-13T06:50:34;102403.53;;;16.46;39.06
47154;BME280;32907;41.412;2.164;2023-02-13T06:53:02;102422.91;;;16.68;38.50
47154;BME280;32907;41.412;2.164;2023-02-13T06:55:30;102327.25;;;16.06;38.58
47154;BME280;32907;41.412;2.164;2023-02-13T06:57:58;102405.13;;;16.54;38.35
47154;BME280;32907;41.412;2.164;2023-02-13T07:00:27;102427.16;;;16.57;38.57
47154;BME280;32907;41.412;2.164;2023-02-13T07:03:04;102424.63;;;16.62;38.11
47154;BME280;32907;41.412;2.164;2023-02-13T07:05:32;102407.09;;;16.65;38.95
47154;BME280;32907;41.412;2.164;2023-02-13T07:08:01;102344.56;;;16.23;39.81
47154;BME280;32907;41.412;2.164;2023-02-13T07:10:29;102385.53;;;16.51;39.74
47154;BME280;32907;41.412;2.164;2023-02-13T07:12:57;102426.41;;;16.75;39.04
47154;BME280;32907;41.412;2.164;2023-02-13T07:15:33;102428.81;;;16.83;38.93
47154;BME280;32907;41.412;2.164;2023-02-13T07:18:04;102436.31;;;16.88;38.23
47154;BME280;32907;41.412;2.164;2023-02-13T07:20:32;102440.66;;;16.89;38.86
47154;BME280;32907;41.412;2.164;2023-02-13T07:23:03;102449.03;;;16.87;38.69
47154;BME280;32907;41.412;2.164;2023-02-13T07:25:33;102456.56;;;16.85;38.49
47154;BME280;32907;41.412;2.164;2023-02-13T07:28:05;102462.41;;;16.82;38.40
47154;BME280;32907;41.412;2.164;2023-02-13T07:30:37;102474.88;;;16.83;38.60
47154;BME280;32907;41.412;2.164;2023-02-13T07:33:05;102464.78;;;16.72;38.02
47154;BME280;32907;41.412;2.164;2023-02-13T07:35:33;102493.06;;;16.76;38.00
47154;BME280;32907;41.412;2.164;2023-02-13T07:38:03;102481.00;;;16.78;37.98
47154;BME280;32907;41.412;2.164;2023-02-13T07:40:31;102468.41;;;16.59;37.70
47154;BME280;32907;41.412;2.164;2023-02-13T07:43:01;102466.22;;;16.68;37.99
47154;BME280;32907;41.412;2.164;2023-02-13T07:45:30;102485.13;;;16.81;37.97
47154;BME280;32907;41.412;2.164;2023-02-13T07:47:58;102490.53;;;16.81;37.83
47154;BME280;32907;41.412;2.164;2023-02-13T07:50:27;102489.25;;;16.84;38.00
47154;BME280;32907;41.412;2.164;2023-02-13T07:53:00;102468.78;;;16.63;37.62
47154;BME280;32907;41.412;2.164;2023-02-13T07:55:29;102492.66;;;16.79;37.54
47154;BME280;32907;41.412;2.164;2023-02-13T07:57:59;102496.41;;;16.78;37.76
47154;BME280;32907;41.412;2.164;2023-02-13T08:00:27;102472.75;;;16.60;38.08
47154;BME280;32907;41.412;2.164;2023-02-13T08:03:02;102493.03;;;16.83;37.82
47154;BME280;32907;41.412;2.164;2023-02-13T08:05:31;102450.34;;;16.53;37.88
47154;BME280;32907;41.412;2.164;2023-02-13T08:07:59;102465.84;;;16.71;38.08
47154;BME280;32907;41.412;2.164;2023-02-13T08:10:28;102494.91;;;16.82;38.10
47154;BME280;32907;41.412;2.164;2023-02-13T08:13:14;102504.28;;;16.86;38.05
47154;BME280;32907;41.412;2.164;2023-02-13T08:15:43;102495.31;;;16.86;38.05
47154;BME280;32907;41.412;2.164;2023-02-13T08:18:12;102475.03;;;16.70;38.16
47154;BME280;32907;41.412;2.164;2023-02-13T08:20:40;102400.91;;;16.08;38.26
47154;BME280;32907;41.412;2.164;2023-02-13T08:23:09;102429.81;;;16.39;38.40
47154;BME280;32907;41.412;2.164;2023-02-13T08:25:38;102521.19;;;16.82;38.84
47154;BME280;32907;41.412;2.164;2023-02-13T08:28:06;102479.19;;;16.66;39.10
47154;BME280;32907;41.412;2.164;2023-02-13T08:30:36;102511.75;;;16.84;39.15
47154;BME280;32907;41.412;2.164;2023-02-13T08:33:04;102514.06;;;16.87;39.04
47154;BME280;32907;41.412;2.164;2023-02-13T08:35:32;102464.72;;;16.54;38.84
47154;BME280;32907;41.412;2.164;2023-02-13T08:38:02;102451.00;;;16.48;38.79
47154;BME280;32907;41.412;2.164;2023-02-13T08:40:30;102436.34;;;16.31;38.79
47154;BME280;32907;41.412;2.164;2023-02-13T08:43:02;102523.09;;;16.99;38.57
47154;BME280;32907;41.412;2.164;2023-02-13T08:45:32;102459.28;;;16.54;38.63
47154;BME280;32907;41.412;2.164;2023-02-13T08:48:01;102494.31;;;16.80;38.24
47154;BME280;32907;41.412;2.164;2023-02-13T08:50:30;102459.63;;;16.64;38.53
47154;BME280;32907;41.412;2.164;2023-02-13T08:52:58;102510.00;;;16.96;38.54
47154;BME280;32907;41.412;2.164;2023-02-13T08:55:27;102542.97;;;17.18;38.95
47154;BME280;32907;41.412;2.164;2023-02-13T08:58:00;102539.63;;;17.16;39.29
47154;BME280;32907;41.412;2.164;2023-02-13T09:00:31;102414.13;;;16.47;38.25
47154;BME280;32907;41.412;2.164;2023-02-13T09:03:00;102507.25;;;17.03;38.38
47154;BME280;32907;41.412;2.164;2023-02-13T09:05:29;102486.97;;;16.87;38.42
47154;BME280;32907;41.412;2.164;2023-02-13T09:08:00;102498.06;;;17.04;38.32
47154;BME280;32907;41.412;2.164;2023-02-13T09:10:31;102508.25;;;17.09;38.76
47154;BME280;32907;41.412;2.164;2023-02-13T09:13:00;102502.41;;;17.05;38.68
47154;BME280;32907;41.412;2.164;2023-02-13T09:15:29;102508.84;;;17.11;38.67
47154;BME280;32907;41.412;2.164;2023-02-13T09:17:58;102502.59;;;17.10;38.37
47154;BME280;32907;41.412;2.164;2023-02-13T09:20:26;102506.50;;;17.14;38.23
47154;BME280;32907;41.412;2.164;2023-02-13T09:22:54;102505.84;;;17.19;37.99
47154;BME280;32907;41.412;2.164;2023-02-13T09:25:23;102493.41;;;17.11;38.05
47154;BME280;32907;41.412;2.164;2023-02-13T09:27:52;102531.78;;;17.33;38.16
47154;BME280;32907;41.412;2.164;2023-02-13T09:30:20;102395.94;;;16.55;38.11
47154;BME280;32907;41.412;2.164;2023-02-13T09:32:52;102551.81;;;17.50;38.08
47154;BME280;32907;41.412;2.164;2023-02-13T09:35:20;102544.63;;;17.56;38.99
47154;BME280;32907;41.412;2.164;2023-02-13T09:37:48;102438.78;;;16.89;38.48
47154;BME280;32907;41.412;2.164;2023-02-13T09:40:17;102552.94;;;17.61;38.65
47154;BME280;32907;41.412;2.164;2023-02-13T09:42:48;102564.19;;;17.65;38.50
47154;BME280;32907;41.412;2.164;2023-02-13T09:45:19;102561.47;;;17.65;38.52
47154;BME280;32907;41.412;2.164;2023-02-13T09:47:47;102475.09;;;17.06;38.40
47154;BME280;32907;41.412;2.164;2023-02-13T09:50:23;102535.59;;;17.44;37.90
47154;BME280;32907;41.412;2.164;2023-02-13T09:52:53;102554.59;;;17.62;37.74
47154;BME280;32907;41.412;2.164;2023-02-13T09:58:13;102485.56;;;17.21;37.75
47154;BME280;32907;41.412;2.164;2023-02-13T10:00:46;102451.44;;;16.95;37.02
47154;BME280;32907;41.412;2.164;2023-02-13T10:03:22;102555.13;;;17.52;37.00
47154;BME280;32907;41.412;2.164;2023-02-13T10:06:31;102548.47;;;17.48;36.96
47154;BME280;32907;41.412;2.164;2023-02-13T10:09:14;102550.38;;;17.48;36.81
47154;BME280;32907;41.412;2.164;2023-02-13T10:17:23;102451.50;;;16.89;37.85
47154;BME280;32907;41.412;2.164;2023-02-13T10:19:59;102503.50;;;17.22;38.12
47154;BME280;32907;41.412;2.164;2023-02-13T10:22:37;102512.84;;;17.26;38.46
47154;BME280;32907;41.412;2.164;2023-02-13T10:25:20;102524.66;;;17.32;38.84
47154;BME280;32907;41.412;2.164;2023-02-13T10:27:54;102554.47;;;17.57;43.12
47154;BME280;32907;41.412;2.164;2023-02-13T10:30:28;102476.09;;;17.30;47.07
47154;BME280;32907;41.412;2.164;2023-02-13T10:33:09;102549.59;;;17.84;40.37
47154;BME280;32907;41.412;2.164;2023-02-13T10:36:04;102545.66;;;17.80;39.84
47154;BME280;32907;41.412;2.164;2023-02-13T10:38:36;102504.66;;;17.51;39.37
47154;BME280;32907;41.412;2.164;2023-02-13T11:00:10;102521.22;;;17.43;39.46
47154;BME280;32907;41.412;2.164;2023-02-13T11:02:41;102556.31;;;17.56;39.84
47154;BME280;32907;41.412;2.164;2023-02-13T11:05:22;102559.03;;;17.56;39.88
47154;BME280;32907;41.412;2.164;2023-02-13T11:07:50;102535.16;;;17.47;39.61
47154;BME280;32907;41.412;2.164;2023-02-13T11:10:21;102552.56;;;17.57;39.58
47154;BME280;32907;41.412;2.164;2023-02-13T11:12:50;102544.97;;;17.66;41.92
47154;BME280;32907;41.412;2.164;2023-02-13T11:17:54;102539.03;;;17.76;39.75
47154;BME280;32907;41.412;2.164;2023-02-13T11:20:34;102544.50;;;17.69;39.85
47154;BME280;32907;41.412;2.164;2023-02-13T11:23:33;102533.66;;;17.69;39.42
47154;BME280;32907;41.412;2.164;2023-02-13T11:26:13;102526.56;;;17.68;39.45
47154;BME280;32907;41.412;2.164;2023-02-13T11:28:56;102486.88;;;17.37;39.42
47154;BME280;32907;41.412;2.164;2023-02-13T11:31:30;102522.44;;;17.66;39.99
47154;BME280;32907;41.412;2.164;2023-02-13T11:34:24;102512.72;;;17.76;43.07
47154;BME280;32907;41.412;2.164;2023-02-13T11:36:54;102497.19;;;17.83;43.18
47154;BME280;32907;41.412;2.164;2023-02-13T11:39:33;102478.13;;;17.90;41.92
47154;BME280;32907;41.412;2.164;2023-02-13T11:42:01;102488.09;;;18.08;41.29
47154;BME280;32907;41.412;2.164;2023-02-13T11:44:31;102498.66;;;18.28;40.90
47154;BME280;32907;41.412;2.164;2023-02-13T11:47:01;102501.50;;;18.33;40.36
47154;BME280;32907;41.412;2.164;2023-02-13T11:49:36;102473.47;;;18.21;39.88
47154;BME280;32907;41.412;2.164;2023-02-13T11:52:20;102500.69;;;18.32;39.36
47154;BME280;32907;41.412;2.164;2023-02-13T11:55:01;102501.84;;;18.25;38.92
47154;BME280;32907;41.412;2.164;2023-02-13T11:57:34;102432.50;;;17.80;39.55
47154;BME280;32907;41.412;2.164;2023-02-13T12:00:26;102497.31;;;18.18;40.00
47154;BME280;32907;41.412;2.164;2023-02-13T12:02:57;102411.34;;;17.71;40.00
47154;BME280;32907;41.412;2.164;2023-02-13T12:05:27;102466.38;;;18.08;39.54
47154;BME280;32907;41.412;2.164;2023-02-13T12:07:59;102423.00;;;17.89;39.39
47154;BME280;32907;41.412;2.164;2023-02-13T12:10:30;102450.56;;;18.05;40.33
47154;BME280;32907;41.412;2.164;2023-02-13T12:13:19;102483.75;;;18.18;39.85
47154;BME280;32907;41.412;2.164;2023-02-13T12:15:56;102459.56;;;18.17;40.83
47154;BME280;32907;41.412;2.164;2023-02-13T12:18:33;102473.78;;;18.31;40.70
47154;BME280;32907;41.412;2.164;2023-02-13T12:21:05;102472.00;;;18.36;40.63
47154;BME280;32907;41.412;2.164;2023-02-13T12:24:03;102461.84;;;18.43;40.93
47154;BME280;32907;41.412;2.164;2023-02-13T12:26:43;102392.94;;;18.03;40.54
47154;BME280;32907;41.412;2.164;2023-02-13T12:35:17;102449.91;;;18.33;40.78
47154;BME280;32907;41.412;2.164;2023-02-13T12:46:20;102430.41;;;18.36;40.10
47154;BME280;32907;41.412;2.164;2023-02-13T12:49:29;102434.09;;;18.30;40.37
47154;BME280;32907;41.412;2.164;2023-02-13T13:08:21;102356.19;;;17.77;40.70
47154;BME280;32907;41.412;2.164;2023-02-13T13:16:28;102401.31;;;18.01;40.90
47154;BME280;32907;41.412;2.164;2023-02-13T13:19:12;102404.63;;;18.03;41.06
47154;BME280;32907;41.412;2.164;2023-02-13T13:26:58;102393.66;;;18.10;40.55
47154;BME280;32907;41.412;2.164;2023-02-13T13:29:52;102336.50;;;17.81;40.98
47154;BME280;32907;41.412;2.164;2023-02-13T13:32:21;102375.03;;;18.13;40.66
47154;BME280;32907;41.412;2.164;2023-02-13T13:34:50;102328.56;;;17.80;40.98
47154;BME280;32907;41.412;2.164;2023-02-13T13:40:48;102356.03;;;18.13;40.75
47154;BME280;32907;41.412;2.164;2023-02-13T13:49:08;102368.53;;;18.26;40.30
47154;BME280;32907;41.412;2.164;2023-02-13T13:51:38;102350.94;;;18.17;40.48
47154;BME280;32907;41.412;2.164;2023-02-13T14:05:24;102356.72;;;18.21;40.36
47154;BME280;32907;41.412;2.164;2023-02-13T14:08:07;102357.91;;;18.25;40.35
47154;BME280;32907;41.412;2.164;2023-02-13T14:13:34;102352.72;;;18.23;40.76
47154;BME280;32907;41.412;2.164;2023-02-13T14:16:04;102333.44;;;18.01;40.82
47154;BME280;32907;41.412;2.164;2023-02-13T14:18:33;102359.56;;;18.26;40.88
47154;BME280;32907;41.412;2.164;2023-02-13T14:21:02;102115.69;;;16.75;40.85
47154;BME280;32907;41.412;2.164;2023-02-13T14:23:43;102350.25;;;18.22;40.94
47154;BME280;32907;41.412;2.164;2023-02-13T14:31:31;102356.50;;;18.34;41.11
47154;BME280;32907;41.412;2.164;2023-02-13T14:34:20;102353.22;;;18.32;41.18
47154;BME280;32907;41.412;2.164;2023-02-13T14:37:15;102318.56;;;18.04;41.04
47154;BME280;32907;41.412;2.164;2023-02-13T14:42:45;102365.00;;;18.26;40.70
47154;BME280;32907;41.412;2.164;2023-02-13T14:45:15;102367.28;;;18.29;40.50
47154;BME280;32907;41.412;2.164;2023-02-13T14:47:51;102363.50;;;18.30;40.53
47154;BME280;32907;41.412;2.164;2023-02-13T14:50:51;102265.28;;;17.68;40.32
47154;BME280;32907;41.412;2.164;2023-02-13T14:53:27;102317.66;;;17.98;40.59
47154;BME280;32907;41.412;2.164;2023-02-13T14:56:12;102351.66;;;18.24;40.37
47154;BME280;32907;41.412;2.164;2023-02-13T14:58:49;102350.59;;;18.13;40.53
47154;BME280;32907;41.412;2.164;2023-02-13T15:01:27;102352.16;;;18.21;40.78
47154;BME280;32907;41.412;2.164;2023-02-13T15:04:11;102352.50;;;18.25;40.70
47154;BME280;32907;41.412;2.164;2023-02-13T15:06:42;102355.22;;;18.25;40.67
47154;BME280;32907;41.412;2.164;2023-02-13T15:09:35;102355.22;;;18.25;40.56
47154;BME280;32907;41.412;2.164;2023-02-13T15:12:35;102339.75;;;18.13;40.44
47154;BME280;32907;41.412;2.164;2023-02-13T15:15:42;102348.38;;;18.22;40.36
47154;BME280;32907;41.412;2.164;2023-02-13T15:18:21;102343.75;;;18.23;40.45
47154;BME280;32907;41.412;2.164;2023-02-13T15:20:54;102317.66;;;18.10;40.30
47154;BME280;32907;41.412;2.164;2023-02-13T15:23:28;102329.47;;;18.15;40.44
47154;BME280;32907;41.412;2.164;2023-02-13T15:26:03;102337.50;;;18.22;40.58
47154;BME280;32907;41.412;2.164;2023-02-13T15:28:33;102344.59;;;18.23;40.67
47154;BME280;32907;41.412;2.164;2023-02-13T15:31:05;102317.53;;;18.16;40.61
47154;BME280;32907;41.412;2.164;2023-02-13T15:33:49;102331.34;;;18.27;40.36
47154;BME280;32907;41.412;2.164;2023-02-13T15:36:23;102334.06;;;18.27;40.62
47154;BME280;32907;41.412;2.164;2023-02-13T15:39:03;102328.63;;;18.27;40.70
47154;BME280;32907;41.412;2.164;2023-02-13T15:41:40;102253.06;;;17.77;41.79
47154;BME280;32907;41.412;2.164;2023-02-13T15:44:15;102329.47;;;18.27;41.75
47154;BME280;32907;41.412;2.164;2023-02-13T15:46:49;102337.84;;;18.26;41.66
47154;BME280;32907;41.412;2.164;2023-02-13T15:49:25;102320.84;;;18.18;42.35
47154;BME280;32907;41.412;2.164;2023-02-13T15:52:05;102319.78;;;18.31;42.48
47154;BME280;32907;41.412;2.164;2023-02-13T15:54:49;102318.97;;;18.31;42.34
47154;BME280;32907;41.412;2.164;2023-02-13T15:57:18;102287.34;;;18.13;42.48
47154;BME280;32907;41.412;2.164;2023-02-13T15:59:46;102320.75;;;18.37;42.44